Time;durP1;ratioP1;P1;durP2;ratioP2;P2;SDS_P1;SDS_P2;PMS_P1;PMS_P2;Temp;Humidity;BMP_temperature;BMP_pressure;BME280_temperature;BME280_humidity;BME280_pressure;Samples;Min_cycle;Max_cycle;Signal;HPM_P1;HPM_P2
2024/03/22 00:02:04;;;;;;;17.30;14.47;;;;;;;10.26;98.27;153994.03;5055029;28;20446;-92
2024/03/22 00:04:30;;;;;;;16.43;13.67;;;;;;;10.23;98.41;153986.28;5058993;28;20449;-92
2024/03/22 00:06:57;;;;;;;18.03;14.27;;;;;;;10.18;98.66;153973.34;5071487;28;20446;-93
2024/03/22 00:09:23;;;;;;;20.20;14.60;;;;;;;10.13;98.56;153960.41;5051394;28;20209;-92
2024/03/22 00:11:50;;;;;;;17.80;14.03;;;;;;;10.13;99.04;153961.69;5050739;28;20499;-92
2024/03/22 00:14:15;;;;;;;18.20;13.30;;;;;;;10.09;99.03;153951.25;5059243;28;20433;-93
2024/03/22 00:16:42;;;;;;;19.43;14.43;;;;;;;10.10;99.30;153952.56;5052274;28;20443;-92
2024/03/22 00:19:09;;;;;;;19.63;13.93;;;;;;;10.10;99.25;153952.56;5068698;28;20565;-91
2024/03/22 00:21:35;;;;;;;18.73;12.93;;;;;;;10.12;99.76;153959.09;5068802;28;21027;-92
2024/03/22 00:24:01;;;;;;;20.00;12.37;;;;;;;10.12;100.00;153957.72;5052646;28;20768;-92
2024/03/22 00:26:28;;;;;;;17.37;13.30;;;;;;;10.13;100.00;153960.41;5051355;28;20489;-91
2024/03/22 00:28:54;;;;;;;16.80;14.17;;;;;;;10.11;100.00;153955.19;5070028;28;20213;-92
2024/03/22 00:31:20;;;;;;;19.70;13.17;;;;;;;10.12;100.00;153959.09;5051334;28;20796;-92
2024/03/22 00:33:46;;;;;;;18.47;13.83;;;;;;;10.17;100.00;153970.72;5069107;28;20212;-91
2024/03/22 00:36:14;;;;;;;15.80;11.60;;;;;;;10.19;100.00;153975.94;5052050;28;20449;-91
2024/03/22 00:38:39;;;;;;;16.00;12.50;;;;;;;10.17;100.00;153972.03;5069961;28;20209;-92
2024/03/22 00:41:06;;;;;;;21.93;13.80;;;;;;;10.14;100.00;153963.00;5051771;28;21041;-91
2024/03/22 00:43:32;;;;;;;14.70;11.90;;;;;;;10.08;99.79;153947.41;5056576;28;20209;-91
2024/03/22 00:45:58;;;;;;;13.67;10.80;;;;;;;10.01;99.66;153929.25;5053588;28;20932;-92
2024/03/22 00:48:24;;;;;;;16.77;11.57;;;;;;;9.95;99.44;153915.06;5072378;28;20232;-90
2024/03/22 00:50:50;;;;;;;17.13;11.97;;;;;;;9.95;99.65;153915.06;5069300;28;20509;-91
2024/03/22 00:53:17;;;;;;;15.20;12.20;;;;;;;9.92;99.87;153906.00;5069029;28;20480;-91
2024/03/22 00:55:46;;;;;;;13.97;11.10;;;;;;;9.95;100.00;153913.75;5034018;28;20446;-92
2024/03/22 00:58:11;;;;;;;13.30;10.47;;;;;;;9.94;100.00;153911.16;5050677;28;20453;-91
2024/03/22 01:00:40;;;;;;;13.03;10.93;;;;;;;9.88;100.00;153895.59;5075810;28;20438;-90
2024/03/22 01:03:06;;;;;;;12.07;9.37;;;;;;;9.82;100.00;153882.69;5073773;28;20216;-90
2024/03/22 01:05:32;;;;;;;14.77;10.73;;;;;;;9.78;99.91;153871.03;5052959;28;20450;-92
2024/03/22 01:07:58;;;;;;;14.60;10.50;;;;;;;9.76;100.00;153867.19;5056823;28;20477;-92
2024/03/22 01:10:27;;;;;;;15.00;10.53;;;;;;;9.72;100.00;153856.81;5066895;28;20233;-91
2024/03/22 01:12:53;;;;;;;17.20;11.00;;;;;;;9.70;100.00;153851.63;5053772;28;20438;-91
2024/03/22 01:15:19;;;;;;;16.97;11.40;;;;;;;9.71;100.00;153854.25;5071699;28;20465;-91
2024/03/22 01:17:45;;;;;;;13.60;10.67;;;;;;;9.68;100.00;153846.47;5069305;28;20445;-91
2024/03/22 01:20:11;;;;;;;13.07;11.07;;;;;;;9.61;100.00;153827.06;5068517;28;20209;-92
2024/03/22 01:22:37;;;;;;;15.27;11.00;;;;;;;9.61;99.93;153827.06;5050014;28;20504;-91
2024/03/22 01:25:03;;;;;;;13.40;10.50;;;;;;;9.57;100.00;153818.00;5049308;28;20287;-91
2024/03/22 01:27:31;;;;;;;12.70;10.57;;;;;;;9.52;99.90;153805.06;5053790;28;20876;-92
2024/03/22 01:29:56;;;;;;;14.93;10.57;;;;;;;9.48;99.78;153793.41;5053082;28;20980;-91
2024/03/22 01:32:23;;;;;;;13.00;9.73;;;;;;;9.47;99.96;153792.13;5032847;28;20564;-92
2024/03/22 01:34:48;;;;;;;14.70;10.60;;;;;;;9.43;100.00;153780.47;5070242;28;20262;-92
2024/03/22 01:37:15;;;;;;;13.87;11.07;;;;;;;9.39;99.90;153771.44;5070542;28;20857;-91
2024/03/22 01:39:41;;;;;;;15.17;11.20;;;;;;;9.38;99.79;153767.53;5052285;28;20262;-91
2024/03/22 01:42:07;;;;;;;14.50;10.90;;;;;;;9.40;100.00;153772.75;5051599;28;20963;-92
2024/03/22 01:44:34;;;;;;;14.03;11.17;;;;;;;9.35;100.00;153761.06;5050558;28;20217;-91
2024/03/22 01:47:02;;;;;;;15.70;11.40;;;;;;;9.32;100.00;153753.31;5045570;28;20890;-92
2024/03/22 01:49:27;;;;;;;15.03;10.20;;;;;;;9.30;100.00;153748.13;5065374;28;20434;-91
2024/03/22 01:51:54;;;;;;;15.87;12.10;;;;;;;9.26;100.00;153737.81;5063935;28;20442;-92
2024/03/22 01:54:20;;;;;;;17.27;13.03;;;;;;;9.28;100.00;153742.97;5065592;28;20271;-91
2024/03/22 01:56:47;;;;;;;16.60;12.60;;;;;;;9.27;100.00;153740.38;5067888;28;20493;-91
2024/03/22 01:59:13;;;;;;;17.47;13.23;;;;;;;9.21;100.00;153724.88;5056542;28;20898;-90
2024/03/22 02:01:41;;;;;;;16.47;13.27;;;;;;;9.15;100.00;153710.66;5048171;28;20451;-91
2024/03/22 02:04:07;;;;;;;17.37;12.87;;;;;;;9.13;100.00;153705.44;5052723;28;20673;-91
2024/03/22 02:06:34;;;;;;;15.90;12.50;;;;;;;9.09;100.00;153695.13;5046126;28;20447;-91
2024/03/22 02:09:00;;;;;;;17.90;13.17;;;;;;;9.07;100.00;153688.66;5048513;28;20201;-90
2024/03/22 02:11:27;;;;;;;15.37;12.57;;;;;;;9.04;100.00;153680.88;5053258;28;20496;-91
2024/03/22 02:13:52;;;;;;;17.17;12.73;;;;;;;8.97;100.00;153662.81;5035362;28;20255;-91
2024/03/22 02:16:19;;;;;;;14.43;12.63;;;;;;;8.95;100.00;153657.59;5047470;28;20466;-91
2024/03/22 02:18:46;;;;;;;18.00;12.93;;;;;;;8.92;100.00;153651.13;5045713;28;20643;-91
2024/03/22 02:21:12;;;;;;;18.80;13.60;;;;;;;8.90;100.00;153644.66;5039076;28;20549;-91
2024/03/22 02:23:40;;;;;;;16.80;13.37;;;;;;;8.91;100.00;153648.56;5051407;28;20955;-92
2024/03/22 02:26:07;;;;;;;16.80;12.50;;;;;;;8.91;100.00;153648.56;5070442;28;20473;-91
2024/03/22 02:28:34;;;;;;;15.80;12.10;;;;;;;8.91;100.00;153647.28;5058912;28;20461;-91
2024/03/22 02:31:00;;;;;;;15.97;12.60;;;;;;;8.88;100.00;153639.50;5078149;28;20478;-90
2024/03/22 02:33:26;;;;;;;16.13;13.23;;;;;;;8.85;100.00;153631.75;5074425;28;20438;-91
2024/03/22 02:35:53;;;;;;;19.23;13.40;;;;;;;8.83;100.00;153626.59;5052861;28;20563;-92
2024/03/22 02:38:18;;;;;;;19.47;13.40;;;;;;;8.82;100.00;153623.97;5046840;28;20279;-91
2024/03/22 02:40:47;;;;;;;15.87;12.80;;;;;;;8.81;100.00;153621.41;5034235;28;20466;-91
2024/03/22 02:43:13;;;;;;;19.73;13.87;;;;;;;8.79;100.00;153616.25;5050540;28;20454;-91
2024/03/22 02:45:40;;;;;;;20.20;13.73;;;;;;;8.77;100.00;153612.34;5067040;28;20466;-91
2024/03/22 02:48:06;;;;;;;16.00;13.03;;;;;;;8.73;100.00;153600.72;5066643;28;20205;-91
2024/03/22 02:50:34;;;;;;;14.57;12.57;;;;;;;8.74;100.00;153604.59;5067945;28;20939;-92
2024/03/22 02:52:59;;;;;;;16.27;12.00;;;;;;;8.69;100.00;153591.66;5049902;28;20461;-91
2024/03/22 02:55:26;;;;;;;14.23;11.90;;;;;;;8.70;100.00;153592.97;5050011;28;20812;-91
2024/03/22 02:57:53;;;;;;;14.80;11.90;;;;;;;8.70;100.00;153592.97;5041439;28;20213;-91
2024/03/22 03:00:19;;;;;;;16.23;12.33;;;;;;;8.70;100.00;153594.28;5067390;28;20438;-92
2024/03/22 03:02:45;;;;;;;16.73;14.17;;;;;;;8.68;100.00;153587.81;5050613;28;20455;-91
2024/03/22 03:05:12;;;;;;;13.67;11.10;;;;;;;8.64;100.00;153577.44;5050337;28;20438;-91
2024/03/22 03:07:37;;;;;;;17.30;13.17;;;;;;;8.68;100.00;153589.13;5068361;28;20217;-91
2024/03/22 03:10:04;;;;;;;13.40;11.57;;;;;;;8.70;100.00;153592.97;5066679;28;20480;-91
2024/03/22 03:12:30;;;;;;;17.47;12.47;;;;;;;8.68;100.00;153587.81;5050317;28;20212;-90
2024/03/22 03:14:58;;;;;;;18.53;12.27;;;;;;;8.69;100.00;153590.38;5055977;28;20458;-90
2024/03/22 03:17:24;;;;;;;15.33;11.60;;;;;;;8.70;100.00;153592.97;5064940;28;20259;-90
2024/03/22 03:19:50;;;;;;;17.73;12.97;;;;;;;8.73;100.00;153602.03;5065557;28;20461;-90
2024/03/22 03:22:16;;;;;;;16.50;11.77;;;;;;;8.77;100.00;153611.06;5053694;28;20254;-90
2024/03/22 03:24:42;;;;;;;17.70;12.57;;;;;;;8.78;100.00;153613.66;5066184;28;20493;-90
2024/03/22 03:27:08;;;;;;;16.67;13.17;;;;;;;8.77;100.00;153612.34;5070764;28;20205;-90
2024/03/22 03:29:34;;;;;;;13.90;12.40;;;;;;;8.74;100.00;153604.59;5064464;28;20460;-90
2024/03/22 03:32:01;;;;;;;14.83;12.10;;;;;;;8.72;100.00;153598.13;5061121;28;20217;-90
2024/03/22 03:34:28;;;;;;;16.87;12.90;;;;;;;8.75;100.00;153607.19;5048515;28;20474;-90
2024/03/22 03:36:53;;;;;;;15.57;11.87;;;;;;;8.76;100.00;153608.50;5066630;28;20548;-90
2024/03/22 03:39:20;;;;;;;16.87;13.10;;;;;;;8.73;100.00;153600.72;5045840;28;20921;-90
2024/03/22 03:41:46;;;;;;;15.97;12.23;;;;;;;8.70;100.00;153592.97;5048137;28;20606;-90
2024/03/22 03:44:12;;;;;;;14.77;12.27;;;;;;;8.70;100.00;153592.97;5065871;28;20461;-90
2024/03/22 03:46:38;;;;;;;14.13;12.00;;;;;;;8.71;100.00;153595.56;5066161;28;20209;-90
2024/03/22 03:49:06;;;;;;;14.77;12.37;;;;;;;8.65;100.00;153580.03;5025694;28;20463;-90
2024/03/22 03:51:31;;;;;;;17.27;12.93;;;;;;;8.64;100.00;153578.75;5040509;28;20253;-90
2024/03/22 03:53:58;;;;;;;14.00;12.40;;;;;;;8.67;100.00;153585.22;5047681;28;20497;-90
2024/03/22 03:56:23;;;;;;;14.77;12.30;;;;;;;8.69;100.00;153591.66;5049682;28;20208;-91
2024/03/22 03:58:50;;;;;;;12.60;10.73;;;;;;;8.63;100.00;153574.88;5064813;28;20454;-90
2024/03/22 04:01:17;;;;;;;14.70;11.10;;;;;;;8.61;100.00;153569.69;5041459;28;20513;-90
2024/03/22 04:03:44;;;;;;;15.00;10.73;;;;;;;8.53;100.00;153551.59;5045610;28;20640;-89
2024/03/22 04:06:11;;;;;;;15.17;11.47;;;;;;;8.46;100.00;153533.53;5048631;28;20552;-90
2024/03/22 04:08:37;;;;;;;13.77;10.47;;;;;;;8.45;100.00;153530.91;5048137;28;20964;-89
2024/03/22 04:11:04;;;;;;;15.63;11.33;;;;;;;8.43;100.00;153524.47;5041616;28;20936;-90
2024/03/22 04:13:31;;;;;;;13.10;10.70;;;;;;;8.42;100.00;153523.16;5065089;28;20453;-90
2024/03/22 04:15:59;;;;;;;14.83;11.40;;;;;;;8.41;100.00;153519.28;5063224;28;20449;-90
2024/03/22 04:18:25;;;;;;;13.93;10.80;;;;;;;8.44;100.00;153527.06;5050880;28;20478;-89
2024/03/22 04:20:54;;;;;;;14.03;11.83;;;;;;;8.45;100.00;153530.91;5046695;28;21015;-90
2024/03/22 04:23:22;;;;;;;13.53;10.73;;;;;;;8.45;100.00;153529.63;5064987;28;20441;-90
2024/03/22 04:25:54;;;;;;;16.83;11.83;;;;;;;8.45;100.00;153530.91;5064610;28;20483;-90
2024/03/22 04:28:21;;;;;;;15.00;11.13;;;;;;;8.47;100.00;153536.06;5046569;28;20552;-89
2024/03/22 04:30:54;;;;;;;16.23;10.40;;;;;;;8.44;100.00;153528.34;5045138;28;20504;-90
2024/03/22 04:33:21;;;;;;;15.57;9.70;;;;;;;8.42;100.00;153523.16;5066486;28;20430;-90
2024/03/22 04:35:46;;;;;;;15.00;11.30;;;;;;;8.38;100.00;153511.53;5066486;28;20852;-89
2024/03/22 04:38:13;;;;;;;13.90;11.50;;;;;;;8.38;100.00;153512.84;5068386;28;20469;-89
2024/03/22 04:40:41;;;;;;;13.93;11.07;;;;;;;8.43;100.00;153525.75;5065352;28;20217;-89
2024/03/22 04:43:08;;;;;;;15.67;12.27;;;;;;;8.51;100.00;153546.44;5033578;28;20426;-90
2024/03/22 04:45:35;;;;;;;14.23;10.53;;;;;;;8.52;100.00;153549.00;5063945;28;20454;-90
2024/03/22 04:48:01;;;;;;;13.43;11.13;;;;;;;8.51;100.00;153546.44;5051694;28;20791;-90
2024/03/22 04:50:28;;;;;;;13.70;10.87;;;;;;;8.52;100.00;153549.00;5049644;28;20853;-90
2024/03/22 04:52:53;;;;;;;12.17;10.33;;;;;;;8.55;100.00;153556.75;5071076;28;20430;-90
2024/03/22 04:55:20;;;;;;;14.97;10.83;;;;;;;8.61;100.00;153570.97;5050572;28;20471;-90
2024/03/22 04:57:47;;;;;;;13.40;10.07;;;;;;;8.63;100.00;153576.13;5068334;28;20282;-90
2024/03/22 05:00:15;;;;;;;11.67;9.53;;;;;;;8.64;100.00;153577.44;5050542;28;20450;-90
2024/03/22 05:02:40;;;;;;;13.23;11.23;;;;;;;8.66;100.00;153582.66;5030486;28;20565;-90
2024/03/22 05:05:08;;;;;;;13.93;11.30;;;;;;;8.69;100.00;153590.38;5049323;28;21059;-91
2024/03/22 05:07:33;;;;;;;15.73;10.23;;;;;;;8.70;100.00;153594.28;5065180;28;20305;-90
2024/03/22 05:10:00;;;;;;;13.90;10.63;;;;;;;8.73;100.00;153602.03;5060460;28;20532;-90
2024/03/22 05:12:26;;;;;;;15.73;10.83;;;;;;;8.79;100.00;153616.25;5030628;28;20247;-90
2024/03/22 05:14:53;;;;;;;11.10;9.90;;;;;;;8.76;100.00;153609.81;5068750;28;20995;-90
2024/03/22 05:17:19;;;;;;;11.20;9.47;;;;;;;8.76;100.00;153608.50;5072497;28;20556;-90
2024/03/22 05:19:45;;;;;;;14.80;8.77;;;;;;;8.77;100.00;153611.06;5047288;28;20450;-90
2024/03/22 05:22:11;;;;;;;13.43;10.17;;;;;;;8.78;100.00;153613.66;5068934;28;20217;-90
2024/03/22 05:24:38;;;;;;;15.83;9.90;;;;;;;8.80;100.00;153618.81;5051440;28;20481;-90
2024/03/22 05:27:03;;;;;;;12.57;8.90;;;;;;;8.78;100.00;153614.97;5071209;28;20655;-90
2024/03/22 05:29:30;;;;;;;11.90;9.23;;;;;;;8.80;100.00;153618.81;5048241;28;20528;-89
2024/03/22 05:31:57;;;;;;;13.47;9.73;;;;;;;8.78;100.00;153614.97;5069832;28;20252;-91
2024/03/22 05:34:24;;;;;;;13.43;10.10;;;;;;;8.81;100.00;153622.72;5069601;28;20480;-90
2024/03/22 05:36:49;;;;;;;12.03;9.13;;;;;;;8.83;100.00;153626.59;5071403;28;20453;-90
2024/03/22 05:39:16;;;;;;;14.80;10.80;;;;;;;8.85;100.00;153631.75;5070966;28;20450;-90
2024/03/22 05:41:41;;;;;;;11.63;9.30;;;;;;;8.84;100.00;153630.44;5069035;28;20354;-90
2024/03/22 05:44:09;;;;;;;11.00;9.37;;;;;;;8.85;100.00;153631.75;5052235;28;20873;-90
2024/03/22 05:46:35;;;;;;;11.83;9.50;;;;;;;8.85;100.00;153631.75;5051546;28;20209;-91
2024/03/22 05:49:02;;;;;;;10.70;8.87;;;;;;;8.86;100.00;153634.34;5055231;28;20449;-92
2024/03/22 05:51:29;;;;;;;14.27;10.47;;;;;;;8.90;100.00;153644.66;5059257;28;20556;-92
2024/03/22 05:53:57;;;;;;;11.77;8.87;;;;;;;8.95;100.00;153657.59;5073000;28;20445;-91
2024/03/22 05:56:23;;;;;;;11.53;9.27;;;;;;;8.99;100.00;153667.97;5072195;28;20552;-91
2024/03/22 05:58:49;;;;;;;10.83;8.80;;;;;;;9.02;100.00;153675.72;5073327;28;20568;-91
2024/03/22 06:01:15;;;;;;;12.73;10.70;;;;;;;9.04;100.00;153680.88;5073107;28;20437;-90
2024/03/22 06:03:41;;;;;;;12.00;9.33;;;;;;;9.08;100.00;153691.25;5072123;28;20527;-92
2024/03/22 06:06:08;;;;;;;11.97;9.70;;;;;;;9.11;100.00;153698.97;5058374;28;20671;-91
2024/03/22 06:08:39;;;;;;;11.17;9.33;;;;;;;9.11;100.00;153698.97;5040487;28;20483;-91
2024/03/22 06:11:06;;;;;;;12.23;9.50;;;;;;;9.14;100.00;153706.75;5064864;28;20477;-91
2024/03/22 06:13:34;;;;;;;15.63;11.27;;;;;;;9.17;100.00;153714.50;5064135;28;20896;-91
2024/03/22 06:15:59;;;;;;;11.83;10.30;;;;;;;9.18;100.00;153718.41;5053661;28;20462;-91
2024/03/22 06:18:26;;;;;;;14.70;10.70;;;;;;;9.22;100.00;153727.44;5037713;28;20457;-91
2024/03/22 06:20:54;;;;;;;14.03;10.83;;;;;;;9.28;100.00;153742.97;5070847;28;20205;-92
2024/03/22 06:23:22;;;;;;;12.70;10.60;;;;;;;9.32;100.00;153753.31;5071550;28;20453;-92
2024/03/22 06:25:51;;;;;;;11.20;9.50;;;;;;;9.44;100.00;153783.06;5068021;28;20894;-93
2024/03/22 06:28:17;;;;;;;12.73;10.97;;;;;;;9.56;100.00;153815.41;5062747;28;20468;-93
2024/03/22 06:30:46;;;;;;;15.60;11.20;;;;;;;9.74;100.00;153861.97;5049205;28;20846;-94
2024/03/22 06:33:13;;;;;;;15.30;11.03;;;;;;;9.87;100.00;153893.06;5064743;28;20461;-92
2024/03/22 06:35:39;;;;;;;11.63;10.37;;;;;;;9.98;100.00;153921.53;5050679;28;20470;-92
2024/03/22 06:38:05;;;;;;;13.10;10.87;;;;;;;10.12;100.00;153957.72;5052943;28;21005;-93
2024/03/22 06:40:32;;;;;;;17.30;11.53;;;;;;;10.24;100.00;153988.88;5071158;28;20270;-92
2024/03/22 06:42:59;;;;;;;12.50;10.30;;;;;;;10.31;100.00;154007.00;5071518;28;20698;-93
2024/03/22 06:45:25;;;;;;;12.80;11.03;;;;;;;10.39;100.00;154027.69;5071634;28;20537;-92
2024/03/22 06:47:51;;;;;;;12.40;11.00;;;;;;;10.50;100.00;154056.19;5052567;28;20549;-93
2024/03/22 06:50:17;;;;;;;15.03;12.47;;;;;;;10.65;100.00;154095.03;5036819;28;20628;-93
2024/03/22 06:52:44;;;;;;;14.30;11.10;;;;;;;10.82;100.00;154137.78;5070981;28;20560;-93
2024/03/22 06:55:10;;;;;;;12.50;10.97;;;;;;;11.02;99.99;154189.56;5055934;28;20464;-93
2024/03/22 06:57:38;;;;;;;12.77;11.20;;;;;;;11.21;99.26;154237.47;5036338;28;20434;-94
2024/03/22 07:00:04;;;;;;;13.13;11.77;;;;;;;11.38;98.99;154282.84;5068007;28;20271;-94
2024/03/22 07:02:30;;;;;;;14.07;10.67;;;;;;;11.54;98.27;154323.03;5054730;28;20437;-93
2024/03/22 07:04:56;;;;;;;11.37;9.83;;;;;;;11.69;97.27;154360.63;5053788;28;20503;-94
2024/03/22 07:07:23;;;;;;;14.27;10.30;;;;;;;11.84;96.32;154399.50;5054238;28;20828;-95
2024/03/22 07:09:48;;;;;;;13.60;9.60;;;;;;;12.00;95.63;154442.28;5071800;28;20300;-95
2024/03/22 07:12:15;;;;;;;12.90;11.30;;;;;;;12.17;94.64;154486.38;5053838;28;21052;-95
2024/03/22 07:14:42;;;;;;;10.17;9.10;;;;;;;12.39;94.14;154540.84;5054062;28;20208;-95
2024/03/22 07:17:09;;;;;;;12.03;10.27;;;;;;;12.56;93.15;154586.19;5054222;28;20959;-96
2024/03/22 07:19:34;;;;;;;11.40;9.50;;;;;;;12.77;91.96;154639.38;5071787;28;20833;-96
2024/03/22 07:22:01;;;;;;;11.47;10.20;;;;;;;12.94;91.62;154682.19;5054381;28;20442;-95
2024/03/22 07:24:27;;;;;;;11.27;9.00;;;;;;;13.15;90.22;154736.72;5055773;28;20229;-95
2024/03/22 07:26:53;;;;;;;12.77;9.70;;;;;;;13.37;89.82;154795.09;5057250;28;20441;-96
2024/03/22 07:29:19;;;;;;;11.33;10.13;;;;;;;13.60;88.14;154852.22;5072334;28;20566;-96
2024/03/22 07:31:47;;;;;;;10.90;9.10;;;;;;;13.75;87.81;154891.13;5071916;28;20472;-95
2024/03/22 07:34:19;;;;;;;14.57;9.67;;;;;;;13.99;86.90;154954.75;5050577;28;20471;-95
2024/03/22 07:36:49;;;;;;;12.50;9.97;;;;;;;14.20;85.66;155007.97;5017190;28;20446;-94
2024/03/22 07:39:17;;;;;;;14.50;10.10;;;;;;;14.39;84.67;155057.38;5023157;28;20788;-94
2024/03/22 07:41:43;;;;;;;12.27;10.83;;;;;;;14.54;83.62;155095.03;5071529;28;20430;-95
2024/03/22 07:44:09;;;;;;;11.97;9.50;;;;;;;14.72;83.59;155140.50;5053703;28;20461;-95
2024/03/22 07:46:36;;;;;;;11.40;9.73;;;;;;;14.89;82.70;155184.66;5070181;28;20442;-94
2024/03/22 07:49:14;;;;;;;9.53;8.53;;;;;;;15.14;81.21;155249.66;5072173;28;20205;-94
2024/03/22 07:51:40;;;;;;;10.10;8.40;;;;;;;15.42;80.76;155321.09;5053849;28;20466;-95
2024/03/22 07:54:06;;;;;;;10.93;9.47;;;;;;;15.60;79.55;155369.22;5055906;28;20465;-94
2024/03/22 07:56:33;;;;;;;10.07;8.60;;;;;;;15.71;79.34;155396.53;5064497;28;20462;-95
2024/03/22 07:58:58;;;;;;;9.90;8.90;;;;;;;15.95;77.51;155458.94;5067003;28;20228;-95
2024/03/22 08:01:25;;;;;;;10.23;9.17;;;;;;;16.11;77.25;155500.56;5070714;28;20430;-95
2024/03/22 08:03:51;;;;;;;9.50;8.40;;;;;;;16.25;76.01;155535.66;5070850;28;20209;-96
2024/03/22 08:06:19;;;;;;;10.20;8.37;;;;;;;16.34;74.74;155559.06;5053148;28;20925;-94
2024/03/22 08:08:44;;;;;;;11.90;8.90;;;;;;;16.43;75.16;155583.78;5053375;28;20609;-95
2024/03/22 08:11:11;;;;;;;10.37;8.97;;;;;;;16.65;73.76;155639.78;5071817;28;20477;-94
2024/03/22 08:13:36;;;;;;;10.43;8.50;;;;;;;16.81;73.58;155681.38;5053477;28;20201;-94
2024/03/22 08:16:04;;;;;;;9.97;8.83;;;;;;;16.92;71.87;155708.69;5041927;28;20920;-95
2024/03/22 08:18:30;;;;;;;9.70;8.70;;;;;;;17.04;71.13;155739.94;5070933;28;20209;-94
2024/03/22 08:20:59;;;;;;;9.00;8.03;;;;;;;17.00;72.45;155729.50;5053030;28;20480;-95
2024/03/22 08:23:26;;;;;;;9.77;8.40;;;;;;;17.05;71.10;155742.53;5069781;28;20430;-95
2024/03/22 08:25:52;;;;;;;11.20;8.50;;;;;;;17.15;69.26;155767.28;5051805;28;20492;-94
2024/03/22 08:28:18;;;;;;;9.70;8.10;;;;;;;17.22;67.31;155786.78;5049016;28;20809;-95
2024/03/22 08:30:45;;;;;;;10.63;8.40;;;;;;;17.30;68.93;155806.28;5051132;28;20438;-94
2024/03/22 08:33:11;;;;;;;9.07;8.17;;;;;;;17.34;67.58;155816.72;5050896;28;20234;-95
2024/03/22 08:35:38;;;;;;;10.17;8.13;;;;;;;17.53;66.54;155866.22;5039044;28;20454;-94
2024/03/22 08:38:04;;;;;;;9.03;7.83;;;;;;;17.72;65.27;155915.69;5044220;28;20438;-94
2024/03/22 08:40:32;;;;;;;9.03;8.10;;;;;;;17.76;63.73;155926.13;5068437;28;20886;-94
2024/03/22 08:42:57;;;;;;;11.23;7.60;;;;;;;17.71;64.04;155913.13;5052339;28;20450;-94
2024/03/22 08:45:24;;;;;;;9.27;7.90;;;;;;;17.62;67.22;155889.66;5035461;28;20434;-95
2024/03/22 08:47:50;;;;;;;10.40;7.53;;;;;;;17.43;67.63;155840.13;5070779;28;20211;-95
2024/03/22 08:50:16;;;;;;;8.73;7.63;;;;;;;17.41;65.06;155834.94;5070417;28;20532;-95
2024/03/22 08:52:42;;;;;;;8.80;7.90;;;;;;;17.47;67.71;155850.56;5070807;28;20239;-95
2024/03/22 08:55:10;;;;;;;7.07;6.03;;;;;;;17.44;67.03;155842.75;5052449;28;20858;-93
2024/03/22 08:57:37;;;;;;;7.20;6.50;;;;;;;17.32;66.04;155811.50;5036190;28;20216;-93
2024/03/22 09:00:05;;;;;;;7.80;7.00;;;;;;;17.29;65.53;155805.00;5049280;28;21070;-93
2024/03/22 09:02:30;;;;;;;7.30;6.60;;;;;;;17.32;65.22;155811.50;5052521;28;20431;-93
2024/03/22 09:04:57;;;;;;;12.17;7.23;;;;;;;17.34;68.27;155818.00;5065513;28;20917;-93
2024/03/22 09:07:23;;;;;;;7.53;6.67;;;;;;;17.31;68.42;155808.91;5070820;28;20608;-93
2024/03/22 09:09:50;;;;;;;8.47;6.27;;;;;;;17.21;68.60;155784.16;5052067;28;20484;-94
2024/03/22 09:12:15;;;;;;;7.53;5.87;;;;;;;17.21;65.85;155782.91;5070734;28;20473;-94
2024/03/22 09:14:43;;;;;;;7.13;6.43;;;;;;;17.24;65.53;155791.97;5052756;28;20434;-94
2024/03/22 09:17:09;;;;;;;7.70;6.00;;;;;;;17.24;68.53;155790.66;5070479;28;20212;-95
2024/03/22 09:19:35;;;;;;;8.90;6.60;;;;;;;17.20;65.64;155780.28;5071666;28;20943;-95
2024/03/22 09:22:01;;;;;;;6.63;6.00;;;;;;;17.22;66.17;155786.78;5056350;28;20266;-94
2024/03/22 09:24:27;;;;;;;6.23;5.37;;;;;;;17.30;64.31;155807.63;5039395;28;20882;-94
2024/03/22 09:26:53;;;;;;;6.03;5.40;;;;;;;17.37;65.46;155825.81;5056890;28;20194;-94
2024/03/22 09:29:19;;;;;;;7.13;6.03;;;;;;;17.35;63.26;155819.31;5059369;28;20904;-96
2024/03/22 09:31:46;;;;;;;6.90;5.23;;;;;;;17.33;65.32;155815.44;5057377;28;20229;-94
2024/03/22 09:34:15;;;;;;;7.53;4.90;;;;;;;17.28;65.05;155801.09;5057219;28;20446;-95
2024/03/22 09:36:41;;;;;;;5.17;4.67;;;;;;;17.22;62.98;155785.47;5043591;28;20469;-95
2024/03/22 09:39:14;;;;;;;7.47;6.70;;;;;;;17.25;62.40;155794.59;5085963;28;20426;-95
2024/03/22 09:41:42;;;;;;;6.30;5.30;;;;;;;17.30;60.56;155807.63;5088929;28;20456;-94
2024/03/22 09:44:13;;;;;;;6.40;4.43;;;;;;;17.41;62.40;155836.25;5076680;28;20426;-95
2024/03/22 09:46:42;;;;;;;5.30;4.50;;;;;;;17.43;63.78;155840.13;5061771;28;20529;-95
2024/03/22 09:49:11;;;;;;;5.87;4.57;;;;;;;17.38;61.53;155827.13;5080982;28;20434;-94
2024/03/22 09:51:46;;;;;;;4.10;3.50;;;;;;;17.34;60.11;155816.72;5080369;28;20466;-95
2024/03/22 09:54:13;;;;;;;4.80;4.13;;;;;;;17.42;58.00;155837.56;5076804;28;20441;-96
2024/03/22 09:56:39;;;;;;;5.77;4.40;;;;;;;17.37;56.51;155825.81;5073688;28;20496;-94
2024/03/22 09:59:06;;;;;;;5.20;4.07;;;;;;;17.40;53.58;155833.63;5074113;28;20430;-95
2024/03/22 10:01:34;;;;;;;5.20;4.40;;;;;;;17.45;52.80;155845.34;5074674;28;20197;-95
2024/03/22 10:04:00;;;;;;;6.47;5.13;;;;;;;17.49;51.83;155857.09;5039631;28;20545;-95
2024/03/22 10:06:28;;;;;;;6.17;4.40;;;;;;;17.61;54.44;155887.03;5039518;28;20430;-95
2024/03/22 10:08:55;;;;;;;6.17;4.80;;;;;;;17.59;54.86;155881.84;5039774;28;20446;-95
2024/03/22 10:11:21;;;;;;;6.80;4.57;;;;;;;17.68;58.21;155903.97;5062066;28;20446;-94
2024/03/22 10:13:51;;;;;;;6.00;4.30;;;;;;;17.71;61.37;155913.13;5041211;28;20762;-96
2024/03/22 10:16:19;;;;;;;5.57;4.67;;;;;;;17.69;61.72;155907.88;5055962;28;20201;-95
2024/03/22 10:18:47;;;;;;;5.60;4.53;;;;;;;17.67;56.11;155902.69;5054840;28;20492;-95
2024/03/22 10:21:18;;;;;;;4.43;4.03;;;;;;;17.69;58.92;155907.88;5055528;28;20450;-96
2024/03/22 10:23:48;;;;;;;5.43;4.80;;;;;;;17.66;52.96;155898.78;5055955;28;20454;-95
2024/03/22 10:26:13;;;;;;;5.20;4.70;;;;;;;17.81;57.45;155939.16;5070522;28;20481;-95
2024/03/22 10:28:45;;;;;;;6.13;4.83;;;;;;;17.84;61.13;155946.97;5054979;28;20449;-95
2024/03/22 10:31:11;;;;;;;4.70;4.30;;;;;;;17.82;56.75;155941.72;5070134;28;20216;-95
2024/03/22 10:33:39;;;;;;;5.47;4.87;;;;;;;17.88;58.17;155957.34;5073097;28;21017;-96
2024/03/22 10:36:05;;;;;;;5.93;4.63;;;;;;;17.91;55.68;155965.16;5071463;28;20573;-96
2024/03/22 10:38:33;;;;;;;6.00;4.57;;;;;;;17.97;55.99;155979.50;5055067;28;20437;-96
2024/03/22 10:41:02;;;;;;;6.37;4.93;;;;;;;18.00;53.23;155988.59;5072905;28;20434;-96
2024/03/22 10:43:29;;;;;;;6.40;4.83;;;;;;;18.07;54.92;156005.53;5055721;28;20487;-96
2024/03/22 10:45:56;;;;;;;4.87;4.37;;;;;;;17.99;51.27;155986.00;5073262;28;20445;-96
2024/03/22 10:48:26;;;;;;;6.70;4.67;;;;;;;18.01;48.82;155991.22;5073535;28;20431;-94
2024/03/22 10:50:53;;;;;;;5.20;4.70;;;;;;;17.98;48.55;155982.06;5054949;28;20499;-95
2024/03/22 10:53:22;;;;;;;5.80;4.50;;;;;;;17.94;50.06;155971.69;5055446;28;20477;-95
2024/03/22 10:55:49;;;;;;;7.07;4.23;;;;;;;17.96;54.27;155976.88;5072886;28;20562;-95
2024/03/22 10:58:18;;;;;;;5.70;5.20;;;;;;;17.93;60.31;155970.38;5037932;28;20441;-96
2024/03/22 11:00:44;;;;;;;4.40;3.97;;;;;;;17.87;55.67;155953.47;5072610;28;20438;-96
2024/03/22 11:03:11;;;;;;;6.83;5.57;;;;;;;17.91;59.38;155965.16;5054663;28;20442;-95
2024/03/22 11:05:45;;;;;;;4.97;4.50;;;;;;;17.81;56.47;155939.16;5072740;28;20453;-96
2024/03/22 11:08:11;;;;;;;5.33;4.60;;;;;;;17.84;57.99;155945.66;5072400;28;20888;-96
2024/03/22 11:10:37;;;;;;;5.07;4.20;;;;;;;17.85;55.33;155949.53;5054470;28;20453;-96
2024/03/22 11:13:04;;;;;;;5.23;4.17;;;;;;;17.89;55.52;155958.66;5054178;28;20834;-96